Time;durP1;ratioP1;P1;durP2;ratioP2;P2;SDS_P1;SDS_P2;PMS_P1;PMS_P2;Temp;Humidity;BMP_temperature;BMP_pressure;BME280_temperature;BME280_humidity;BME280_pressure;Samples;Min_cycle;Max_cycle;Signal;HPM_P1;HPM_P2
2021/11/14 00:00:23;;;;;;;;;0.00;0.00;;;;;10.64;76.91;101438.44;5094247;28;45247;-85
2021/11/14 00:02:49;;;;;;;;;0.00;0.00;;;;;10.58;76.53;101421.81;5094135;28;45297;-85
2021/11/14 00:05:14;;;;;;;;;0.25;0.00;;;;;10.63;77.30;101431.44;5095505;28;45296;-86
2021/11/14 00:07:40;;;;;;;;;1.00;1.00;;;;;10.69;77.01;101448.91;5088433;28;45551;-86
2021/11/14 00:10:06;;;;;;;;;0.75;0.00;;;;;10.68;76.98;101448.88;5087901;28;46540;-86
2021/11/14 00:12:32;;;;;;;;;0.00;0.00;;;;;10.52;77.50;101423.44;5090680;28;45295;-86
2021/11/14 00:14:57;;;;;;;;;0.00;0.00;;;;;10.66;77.18;101453.19;5070544;28;45280;-86
2021/11/14 00:17:23;;;;;;;;;0.50;0.00;;;;;10.52;76.90;101438.19;5071978;28;45442;-86
2021/11/14 00:19:49;;;;;;;;;0.00;0.00;;;;;10.43;77.26;101418.03;5090990;28;45240;-86
2021/11/14 00:22:14;;;;;;;;;0.00;0.00;;;;;10.64;77.17;101458.38;5091557;28;45510;-85
2021/11/14 00:24:40;;;;;;;;;0.00;0.00;;;;;10.46;77.21;101425.91;5090810;28;45128;-86
2021/11/14 00:27:05;;;;;;;;;0.00;0.00;;;;;10.66;77.40;101455.81;5075284;28;45247;-86
2021/11/14 00:29:31;;;;;;;;;0.00;0.00;;;;;10.66;77.11;101448.00;5073929;28;48254;-86
2021/11/14 00:31:56;;;;;;;;;0.00;0.00;;;;;10.63;77.63;101446.22;5071363;28;45279;-86
2021/11/14 00:34:22;;;;;;;;;0.00;0.00;;;;;10.70;77.28;101444.59;5087701;28;45616;-87
2021/11/14 00:36:48;;;;;;;;;0.00;0.00;;;;;10.49;77.06;101415.56;5092492;28;45417;-87
2021/11/14 00:39:19;;;;;;;;;0.25;0.00;;;;;10.47;77.15;101414.66;5099593;28;45495;-87
2021/11/14 00:41:46;;;;;;;;;0.00;0.00;;;;;10.43;77.21;101402.41;5079664;28;44937;-87
2021/11/14 00:44:12;;;;;;;;;0.75;0.75;;;;;10.53;77.30;101437.31;5078147;28;45326;-87
2021/11/14 00:46:39;;;;;;;;;0.00;0.00;;;;;10.62;77.09;101442.72;5090173;28;45366;-85
2021/11/14 00:49:05;;;;;;;;;2.00;0.75;;;;;10.51;77.04;101432.09;5071082;28;47136;-86
2021/11/14 00:51:30;;;;;;;;;0.50;0.00;;;;;10.61;77.11;101448.78;5069812;28;45366;-86
2021/11/14 00:53:58;;;;;;;;;1.00;0.75;;;;;10.65;77.30;101452.31;5069300;28;45399;-85
2021/11/14 00:56:24;;;;;;;;;2.00;0.00;;;;;10.57;77.17;101444.34;5087897;28;45314;-86
2021/11/14 00:58:50;;;;;;;;;0.00;0.00;;;;;10.66;76.87;101448.00;5088477;28;45288;-86
2021/11/14 01:01:16;;;;;;;;;0.00;0.00;;;;;10.63;77.24;101449.69;5086409;28;45425;-86
2021/11/14 01:03:42;;;;;;;;;0.00;0.00;;;;;10.67;77.09;101448.03;5086395;28;45470;-86
2021/11/14 01:06:07;;;;;;;;;0.00;0.00;;;;;10.62;77.19;101460.06;5069359;28;45512;-86
2021/11/14 01:08:33;;;;;;;;;0.00;0.00;;;;;10.39;77.44;101409.25;5090561;28;46487;-86
2021/11/14 01:10:59;;;;;;;;;0.00;0.00;;;;;10.60;77.21;101438.34;5090678;28;45445;-86
2021/11/14 01:13:25;;;;;;;;;0.00;0.00;;;;;10.52;77.50;101425.16;5069789;28;45517;-86
2021/11/14 01:15:52;;;;;;;;;1.00;1.00;;;;;10.61;77.55;101448.78;5092152;28;45571;-86
2021/11/14 01:18:20;;;;;;;;;0.00;0.00;;;;;10.42;77.39;101416.28;5090026;28;45622;-86
2021/11/14 01:20:47;;;;;;;;;0.00;0.00;;;;;10.63;77.40;101451.44;5071845;28;45425;-86
2021/11/14 01:23:16;;;;;;;;;0.00;0.00;;;;;10.60;77.33;101448.75;5070409;28;45397;-87
2021/11/14 01:25:42;;;;;;;;;0.00;0.00;;;;;10.47;77.44;101434.59;5081482;28;45426;-85
2021/11/14 01:28:08;;;;;;;;;0.00;0.00;;;;;10.64;77.50;101461.88;5086395;28;46170;-85
2021/11/14 01:30:36;;;;;;;;;0.00;0.00;;;;;10.64;77.52;101455.78;5055912;28;45335;-86
2021/11/14 01:33:04;;;;;;;;;0.00;0.00;;;;;10.60;77.25;101456.56;5075752;28;45300;-85
2021/11/14 01:35:31;;;;;;;;;0.00;0.00;;;;;10.62;77.54;101466.16;5091402;28;45387;-84
2021/11/14 01:37:57;;;;;;;;;1.00;0.50;;;;;10.54;77.66;101439.09;5092344;28;46208;-84
2021/11/14 01:40:27;;;;;;;;;0.00;0.00;;;;;10.41;77.49;101417.09;5085637;28;45983;-85
2021/11/14 01:42:53;;;;;;;;;0.00;0.00;;;;;10.37;77.25;101403.16;5087569;28;45341;-86
2021/11/14 01:45:19;;;;;;;;;0.75;0.75;;;;;10.56;77.52;101450.41;5085638;28;46748;-86
2021/11/14 01:47:45;;;;;;;;;0.00;0.00;;;;;10.54;77.46;101452.13;5091285;28;45599;-86
2021/11/14 01:50:14;;;;;;;;;0.00;0.00;;;;;10.40;77.75;101423.16;5069869;28;45332;-86
2021/11/14 01:52:42;;;;;;;;;3.00;0.00;;;;;10.41;77.59;101426.66;5088817;28;45312;-85
2021/11/14 01:55:09;;;;;;;;;0.00;0.00;;;;;10.60;77.76;101459.16;5088263;28;45565;-86
2021/11/14 01:57:36;;;;;;;;;0.00;0.00;;;;;10.37;77.72;101423.97;5070805;28;45398;-86
2021/11/14 02:00:07;;;;;;;;;0.75;0.00;;;;;10.57;77.67;101459.97;5070363;28;45249;-86
2021/11/14 02:02:33;;;;;;;;;1.00;1.00;;;;;10.41;77.43;101450.06;5088280;28;45267;-86
2021/11/14 02:04:58;;;;;;;;;1.00;0.00;;;;;10.51;77.75;101460.72;5073938;28;45358;-86
2021/11/14 02:07:23;;;;;;;;;0.25;0.25;;;;;10.37;77.50;101443.91;5068752;28;46141;-86
2021/11/14 02:09:49;;;;;;;;;0.00;0.00;;;;;10.24;77.88;101419.38;5088593;28;45357;-86
2021/11/14 02:12:15;;;;;;;;;0.00;0.00;;;;;10.53;77.89;101468.56;5076437;28;45784;-86
2021/11/14 02:14:41;;;;;;;;;0.00;0.00;;;;;10.33;77.72;101436.91;5099124;28;45296;-85
2021/11/14 02:17:07;;;;;;;;;3.00;0.00;;;;;10.42;77.79;101462.22;5095427;28;45252;-85
2021/11/14 02:19:32;;;;;;;;;0.00;0.00;;;;;10.30;77.88;101432.50;5092315;28;45460;-85
2021/11/14 02:21:58;;;;;;;;;0.00;0.00;;;;;10.54;77.72;101466.84;5095490;28;45279;-86
2021/11/14 02:24:23;;;;;;;;;1.00;0.00;;;;;10.43;77.90;101458.78;5094381;28;45145;-86
2021/11/14 02:26:51;;;;;;;;;3.00;0.00;;;;;10.37;77.86;101447.41;5093039;28;46127;-86
2021/11/14 02:29:16;;;;;;;;;0.00;0.00;;;;;10.36;78.08;101461.25;5092107;27;44780;-85
2021/11/14 02:31:43;;;;;;;;;0.00;0.00;;;;;10.46;77.90;101471.88;5097300;28;45476;-86
2021/11/14 02:34:10;;;;;;;;;0.00;0.00;;;;;10.33;77.92;101449.91;5095111;28;45266;-86
2021/11/14 02:36:36;;;;;;;;;1.50;0.00;;;;;10.45;78.28;101468.44;5078210;28;45161;-86
2021/11/14 02:39:03;;;;;;;;;0.75;0.75;;;;;10.30;78.33;101440.31;5092247;28;44893;-86
2021/11/14 02:41:29;;;;;;;;;0.00;0.00;;;;;10.50;78.31;101472.00;5098267;28;44689;-85
2021/11/14 02:43:55;;;;;;;;;0.00;0.00;;;;;10.46;78.29;101445.84;5077408;28;45465;-84
2021/11/14 02:46:21;;;;;;;;;0.75;0.75;;;;;10.38;78.34;101443.06;5093444;28;46006;-85
2021/11/14 02:48:47;;;;;;;;;0.50;0.50;;;;;10.43;78.18;101443.16;5098803;28;45326;-84
2021/11/14 02:51:24;;;;;;;;;0.75;0.75;;;;;10.56;77.96;101457.34;5103008;28;45252;-83
2021/11/14 02:53:50;;;;;;;;;2.00;1.00;;;;;10.56;78.32;101455.63;5077640;28;44865;-84
2021/11/14 02:56:16;;;;;;;;;1.00;1.00;;;;;10.64;78.06;101455.78;5084220;28;45616;-83
2021/11/14 02:58:42;;;;;;;;;0.00;0.00;;;;;10.63;78.02;101454.03;5065471;28;45909;-83
2021/11/14 03:01:33;;;;;;;;;0.50;0.50;;;;;10.62;77.99;101457.47;5082378;28;45145;-83
2021/11/14 03:03:59;;;;;;;;;0.00;0.00;;;;;10.52;77.98;101443.38;5070011;28;45324;-83
2021/11/14 03:06:28;;;;;;;;;0.00;0.00;;;;;10.66;77.84;101456.69;5065658;28;47145;-84
2021/11/14 03:08:53;;;;;;;;;1.00;1.00;;;;;10.57;77.93;101436.53;5085036;28;45291;-85
2021/11/14 03:11:19;;;;;;;;;0.00;0.00;;;;;10.39;78.22;101400.59;5083413;28;45191;-85
2021/11/14 03:13:45;;;;;;;;;0.00;0.00;;;;;10.49;77.78;101426.00;5083851;28;45221;-84
2021/11/14 03:16:14;;;;;;;;;0.00;0.00;;;;;10.48;77.72;101433.75;5048770;28;48425;-84
2021/11/14 03:18:40;;;;;;;;;0.00;0.00;;;;;10.57;77.85;101454.75;5069761;28;46134;-85
2021/11/14 03:21:06;;;;;;;;;0.00;0.00;;;;;10.26;78.22;101402.03;5084489;28;45243;-85
2021/11/14 03:23:32;;;;;;;;;0.00;0.00;;;;;10.45;77.83;101447.59;5050557;28;45527;-85
2021/11/14 03:25:59;;;;;;;;;0.00;0.00;;;;;10.52;78.10;101457.28;5076945;28;48241;-85
2021/11/14 03:28:26;;;;;;;;;0.50;0.00;;;;;10.50;78.01;101456.38;5063696;28;45295;-84
2021/11/14 03:30:54;;;;;;;;;0.50;0.50;;;;;10.24;78.12;101416.75;5097950;28;45363;-84
2021/11/14 03:33:21;;;;;;;;;2.00;0.00;;;;;10.33;78.19;101442.09;5086681;28;44816;-84
2021/11/14 03:35:55;;;;;;;;;0.25;0.25;;;;;10.46;78.26;101462.38;5088074;28;45271;-84
2021/11/14 03:38:28;;;;;;;;;0.00;0.00;;;;;10.37;78.18;101441.31;5085367;28;45386;-84
2021/11/14 03:40:54;;;;;;;;;1.00;1.00;;;;;10.43;78.09;101462.25;5082751;28;45851;-85
2021/11/14 03:43:20;;;;;;;;;0.50;0.50;;;;;10.33;78.18;101436.91;5086210;28;45437;-84
2021/11/14 03:45:45;;;;;;;;;0.00;0.00;;;;;10.49;78.04;101469.34;5079703;28;46112;-84
2021/11/14 03:48:11;;;;;;;;;0.00;0.00;;;;;10.48;78.23;101463.25;5071610;28;45217;-84
2021/11/14 03:50:37;;;;;;;;;0.00;0.00;;;;;10.46;78.13;101454.56;5065514;28;45252;-85
2021/11/14 03:53:06;;;;;;;;;0.00;0.00;;;;;10.54;78.08;101470.34;5083915;28;45355;-84
2021/11/14 03:55:32;;;;;;;;;0.00;0.00;;;;;10.52;78.16;101459.00;5062030;28;47075;-85
2021/11/14 03:57:57;;;;;;;;;0.25;0.25;;;;;10.52;77.80;101461.59;5065551;28;45288;-85
2021/11/14 04:00:34;;;;;;;;;0.00;0.00;;;;;10.55;77.98;101466.00;5087343;28;45751;-84
2021/11/14 04:03:00;;;;;;;;;0.00;0.00;;;;;10.36;78.16;101443.03;5089479;28;45292;-85
2021/11/14 04:05:29;;;;;;;;;0.75;0.00;;;;;10.26;77.94;101422.84;5087826;28;45372;-85
2021/11/14 04:07:55;;;;;;;;;0.00;0.00;;;;;10.36;77.88;101443.03;5089008;28;45310;-85
2021/11/14 04:10:20;;;;;;;;;0.00;0.00;;;;;10.55;77.94;101479.91;5089703;28;45239;-85
2021/11/14 04:12:46;;;;;;;;;0.00;0.00;;;;;10.54;77.88;101475.56;5092838;28;45387;-85
2021/11/14 04:15:14;;;;;;;;;0.00;0.00;;;;;10.57;78.06;101472.13;5080350;28;46973;-85
2021/11/14 04:17:39;;;;;;;;;0.50;0.50;;;;;10.52;77.66;101472.03;5093273;28;45357;-85
2021/11/14 04:20:07;;;;;;;;;0.50;0.50;;;;;10.35;77.87;101443.03;5081412;28;45435;-85
2021/11/14 04:22:33;;;;;;;;;0.00;0.00;;;;;10.50;77.97;101461.56;5074919;28;45229;-85
2021/11/14 04:24:58;;;;;;;;;0.00;0.00;;;;;10.45;77.79;101462.31;5088017;28;45209;-84
2021/11/14 04:27:25;;;;;;;;;0.00;0.00;;;;;10.39;77.90;101448.28;5081487;28;45772;-84
2021/11/14 04:29:51;;;;;;;;;1.00;0.00;;;;;10.21;77.82;101416.69;5084610;28;44740;-84
2021/11/14 04:32:17;;;;;;;;;0.00;0.00;;;;;10.37;78.20;101447.41;5101739;28;45310;-84
2021/11/14 04:34:42;;;;;;;;;0.00;0.00;;;;;10.27;78.21;101441.09;5102186;28;45321;-85
2021/11/14 04:37:08;;;;;;;;;0.00;0.00;;;;;10.10;78.16;101413.84;5087400;28;45884;-83
2021/11/14 04:39:34;;;;;;;;;0.25;0.25;;;;;10.16;78.20;101426.13;5082104;28;44790;-85
2021/11/14 04:42:02;;;;;;;;;0.00;0.00;;;;;10.19;78.35;101440.06;5081906;28;45338;-85
2021/11/14 04:44:28;;;;;;;;;0.00;0.00;;;;;10.25;78.71;101449.72;5100105;28;45209;-85
2021/11/14 04:46:54;;;;;;;;;0.00;0.00;;;;;9.99;78.38;101411.03;5097675;28;45224;-85
2021/11/14 04:49:20;;;;;;;;;0.00;0.00;;;;;10.10;78.10;101427.75;5098771;28;45234;-84
2021/11/14 04:51:48;;;;;;;;;0.00;0.00;;;;;10.05;78.38;101418.97;5100225;28;45533;-84
2021/11/14 04:54:14;;;;;;;;;0.00;0.00;;;;;10.31;78.47;101469.81;5094738;28;45310;-83
2021/11/14 04:56:39;;;;;;;;;1.00;0.00;;;;;10.03;78.52;101431.06;5052866;28;45792;-83
2021/11/14 04:59:04;;;;;;;;;1.00;1.00;;;;;10.29;78.60;101466.31;5073240;28;45456;-84
2021/11/14 05:01:30;;;;;;;;;0.00;0.00;;;;;10.27;78.63;101468.88;5067946;28;45713;-83
2021/11/14 05:03:55;;;;;;;;;0.00;0.00;;;;;10.24;78.89;101467.09;5083694;28;47163;-83
2021/11/14 05:06:21;;;;;;;;;4.75;0.00;;;;;10.22;78.96;101470.47;5062698;28;45300;-84
2021/11/14 05:08:46;;;;;;;;;1.00;1.00;;;;;10.09;78.80;101449.41;5068414;28;45474;-84
2021/11/14 05:11:11;;;;;;;;;1.00;0.00;;;;;10.17;79.18;101472.13;5084976;28;45564;-84
2021/11/14 05:13:37;;;;;;;;;0.50;0.00;;;;;10.10;79.16;101455.47;5082558;28;48441;-83
2021/11/14 05:16:02;;;;;;;;;0.00;0.00;;;;;10.19;79.27;101470.41;5066398;28;45281;-84
2021/11/14 05:18:28;;;;;;;;;0.00;0.00;;;;;9.99;79.42;101434.44;5084662;28;45298;-84
2021/11/14 05:20:53;;;;;;;;;0.00;0.00;;;;;10.19;79.30;101460.91;5065966;28;45311;-84
2021/11/14 05:23:19;;;;;;;;;0.00;0.00;;;;;10.21;79.23;101467.03;5081589;28;46307;-84
2021/11/14 05:25:44;;;;;;;;;0.25;0.25;;;;;10.14;79.43;101458.19;5083426;28;45480;-84
2021/11/14 05:28:10;;;;;;;;;1.25;0.00;;;;;10.16;79.65;101465.16;5084013;28;45465;-84
2021/11/14 05:30:36;;;;;;;;;0.00;0.00;;;;;10.11;79.67;101450.31;5085677;28;45339;-84
2021/11/14 05:33:02;;;;;;;;;0.00;0.00;;;;;9.92;79.78;101422.16;5074634;28;46120;-84
2021/11/14 05:35:27;;;;;;;;;1.25;0.25;;;;;10.05;79.77;101447.59;5050189;28;45822;-84
2021/11/14 05:37:53;;;;;;;;;0.00;0.00;;;;;10.14;79.88;101462.53;5084951;28;45355;-84
2021/11/14 05:40:18;;;;;;;;;0.00;0.00;;;;;10.01;79.73;101441.44;5084632;28;45321;-84
2021/11/14 05:42:44;;;;;;;;;0.00;0.00;;;;;10.09;79.91;101459.81;5083563;28;45418;-83
2021/11/14 05:45:09;;;;;;;;;0.00;0.00;;;;;9.91;79.87;101430.78;5066325;28;45450;-83
2021/11/14 05:47:35;;;;;;;;;0.00;0.00;;;;;9.88;79.86;101422.09;5084869;28;45296;-83
2021/11/14 05:50:01;;;;;;;;;0.50;0.50;;;;;10.15;80.09;101466.88;5084141;28;45289;-84
2021/11/14 05:52:26;;;;;;;;;0.00;0.00;;;;;10.19;80.05;101475.63;5083905;28;45263;-83
2021/11/14 05:54:52;;;;;;;;;1.00;1.00;;;;;10.16;79.68;101475.56;5080262;28;45236;-83
2021/11/14 05:57:17;;;;;;;;;0.00;0.00;;;;;10.15;80.30;101474.69;5083082;28;45216;-83
2021/11/14 06:02:30;;;;;;;;;0.00;0.00;;;;;10.00;80.10;101452.69;5083941;28;45645;-84
2021/11/14 06:05:11;;;;;;;;;0.00;0.00;;;;;10.06;80.28;101464.06;5073996;28;45272;-84
2021/11/14 06:07:37;;;;;;;;;0.00;0.00;;;;;10.18;80.13;101485.16;5075119;28;45283;-84
2021/11/14 06:10:03;;;;;;;;;0.00;0.00;;;;;10.10;80.05;101471.09;5083586;28;45216;-84
2021/11/14 06:12:30;;;;;;;;;1.00;0.50;;;;;10.12;80.15;101475.50;5095882;28;45231;-84
2021/11/14 06:14:56;;;;;;;;;0.00;0.00;;;;;10.13;80.29;101482.44;5094679;28;45381;-84
2021/11/14 06:17:21;;;;;;;;;0.00;0.00;;;;;9.99;80.21;101450.91;5072259;28;45308;-84
2021/11/14 06:19:47;;;;;;;;;0.00;0.00;;;;;10.13;80.16;101478.97;5074786;28;45272;-85
2021/11/14 06:22:14;;;;;;;;;0.00;0.00;;;;;10.04;80.28;101466.63;5074004;28;46238;-84
2021/11/14 06:24:39;;;;;;;;;0.25;0.00;;;;;10.25;80.24;101496.56;5075124;28;45398;-84
2021/11/14 06:27:05;;;;;;;;;0.25;0.25;;;;;10.12;80.11;101482.41;5086907;28;45252;-83
2021/11/14 06:29:30;;;;;;;;;0.00;0.00;;;;;10.08;80.34;101478.84;5084716;28;45500;-83
2021/11/14 06:31:55;;;;;;;;;0.00;0.00;;;;;10.14;80.09;101481.59;5083055;28;46965;-83
2021/11/14 06:34:21;;;;;;;;;0.00;0.00;;;;;10.18;80.17;101489.47;5082250;28;45646;-84
2021/11/14 06:36:46;;;;;;;;;1.00;0.00;;;;;9.96;80.02;101447.38;5067182;28;45254;-83
2021/11/14 06:39:12;;;;;;;;;0.00;0.00;;;;;10.10;80.09;101479.78;5087162;28;45448;-83
2021/11/14 06:41:37;;;;;;;;;0.75;0.75;;;;;10.17;80.06;101492.94;5085498;28;45568;-84
2021/11/14 06:44:03;;;;;;;;;0.00;0.00;;;;;10.21;80.17;101502.56;5086527;28;44656;-83
2021/11/14 06:46:28;;;;;;;;;0.00;0.00;;;;;10.13;80.15;101497.19;5084904;28;45257;-83
2021/11/14 06:48:53;;;;;;;;;0.00;0.00;;;;;10.25;80.28;101515.69;5084866;28;45334;-83
2021/11/14 06:51:19;;;;;;;;;0.00;0.00;;;;;10.28;80.26;101509.66;5085065;28;46176;-84
2021/11/14 06:53:44;;;;;;;;;0.00;0.00;;;;;10.17;79.88;101485.13;5084060;28;45270;-83
2021/11/14 06:56:10;;;;;;;;;0.00;0.00;;;;;10.30;79.93;101518.38;5086820;28;45550;-83
2021/11/14 06:58:36;;;;;;;;;1.00;0.00;;;;;10.14;79.91;101499.81;5084428;28;45298;-83
2021/11/14 07:01:02;;;;;;;;;0.00;0.00;;;;;10.29;80.09;101529.63;5074940;28;45303;-85
2021/11/14 07:03:28;;;;;;;;;0.00;0.00;;;;;10.23;80.22;101516.50;5048475;28;45322;-83
2021/11/14 07:05:53;;;;;;;;;1.25;0.00;;;;;10.33;80.31;101530.59;5084391;28;45483;-83
2021/11/14 07:08:19;;;;;;;;;0.00;0.00;;;;;10.32;80.28;101531.44;5062995;28;45464;-82
2021/11/14 07:10:44;;;;;;;;;0.00;0.00;;;;;10.11;80.13;101491.06;5080479;28;46094;-84
2021/11/14 07:13:10;;;;;;;;;0.75;0.00;;;;;10.27;80.00;101515.72;5083367;28;45340;-84
2021/11/14 07:15:36;;;;;;;;;0.00;0.00;;;;;10.41;80.22;101536.81;5081414;28;45300;-84
2021/11/14 07:18:01;;;;;;;;;0.00;0.00;;;;;10.30;79.96;101520.09;5062337;28;45291;-84
2021/11/14 07:20:27;;;;;;;;;0.75;0.00;;;;;10.46;80.19;101547.38;5057373;28;47977;-84
2021/11/14 07:22:52;;;;;;;;;0.75;0.00;;;;;10.51;79.68;101546.63;5081256;28;45275;-84
2021/11/14 07:25:19;;;;;;;;;0.00;0.00;;;;;10.51;79.76;101548.38;5082046;28;45337;-84
2021/11/14 07:27:47;;;;;;;;;0.00;0.00;;;;;10.51;79.71;101558.78;5063824;28;45289;-84
2021/11/14 07:30:14;;;;;;;;;0.00;0.00;;;;;10.56;79.94;101553.69;5079322;28;47846;-84
2021/11/14 07:32:40;;;;;;;;;0.00;0.00;;;;;10.61;79.86;101557.25;5071909;28;45394;-84
2021/11/14 07:35:08;;;;;;;;;0.25;0.25;;;;;10.38;79.63;101513.34;5071850;28;45362;-84
2021/11/14 07:37:34;;;;;;;;;0.00;0.00;;;;;10.56;79.34;101549.34;5087286;28;45152;-84
2021/11/14 07:39:59;;;;;;;;;0.00;0.00;;;;;10.61;79.46;101560.75;5091288;28;45979;-85
2021/11/14 07:42:26;;;;;;;;;0.00;0.00;;;;;10.68;79.47;101571.28;5096277;28;45255;-85
2021/11/14 07:44:51;;;;;;;;;0.00;0.00;;;;;10.52;79.40;101537.09;5069328;28;45492;-85
2021/11/14 07:47:16;;;;;;;;;0.00;0.00;;;;;10.75;79.25;101574.06;5083652;28;45264;-85
2021/11/14 07:49:42;;;;;;;;;0.00;0.00;;;;;10.55;79.31;101537.19;5083301;28;46240;-85
2021/11/14 07:52:07;;;;;;;;;0.00;0.00;;;;;10.75;79.33;101568.84;5066109;28;45407;-85
2021/11/14 07:54:33;;;;;;;;;0.00;0.00;;;;;10.53;79.02;101541.47;5082592;28;45354;-85
2021/11/14 07:56:58;;;;;;;;;0.00;0.00;;;;;10.79;79.06;101581.94;5086561;28;45287;-85
2021/11/14 07:59:24;;;;;;;;;0.25;0.00;;;;;10.57;79.08;101545.88;5084584;28;45347;-85
2021/11/14 08:01:49;;;;;;;;;0.00;0.00;;;;;10.67;79.33;101562.59;5070144;28;45359;-85
2021/11/14 08:04:15;;;;;;;;;0.00;0.00;;;;;10.62;78.92;101559.00;5086961;28;45323;-85
2021/11/14 08:06:40;;;;;;;;;0.00;0.00;;;;;10.67;79.02;101570.41;5081087;28;45604;-85
2021/11/14 08:09:06;;;;;;;;;0.25;0.00;;;;;10.60;79.04;101564.19;5077935;28;45551;-85
2021/11/14 08:11:31;;;;;;;;;0.00;0.00;;;;;10.85;78.61;101595.97;5063183;28;46016;-83
2021/11/14 08:13:57;;;;;;;;;0.50;0.00;;;;;10.88;78.67;101602.97;5060693;28;45633;-87
2021/11/14 08:16:22;;;;;;;;;0.00;0.00;;;;;10.68;78.61;101573.88;5081750;28;45656;-83
2021/11/14 08:18:47;;;;;;;;;0.50;0.00;;;;;10.79;78.10;101584.53;5067321;28;46149;-85
2021/11/14 08:21:13;;;;;;;;;0.00;0.00;;;;;10.75;78.42;101565.38;5082844;28;45488;-80
2021/11/14 08:23:38;;;;;;;;;0.00;0.00;;;;;10.89;78.53;101600.41;5064659;28;45510;-81
2021/11/14 08:26:03;;;;;;;;;1.00;0.00;;;;;10.94;78.55;101597.00;5080519;28;45319;-82
2021/11/14 08:28:30;;;;;;;;;0.00;0.00;;;;;10.82;78.19;101577.69;5079826;28;45978;-80
2021/11/14 08:30:55;;;;;;;;;0.00;0.00;;;;;10.67;78.08;101535.66;5077992;28;45386;-80
2021/11/14 08:33:21;;;;;;;;;0.00;0.00;;;;;10.85;78.15;101569.94;5073133;28;45278;-81
2021/11/14 08:35:46;;;;;;;;;0.00;0.00;;;;;11.08;78.21;101598.16;5085810;28;45434;-80
2021/11/14 08:38:12;;;;;;;;;0.00;0.00;;;;;11.01;77.85;101593.69;5084001;28;45513;-86
2021/11/14 08:40:38;;;;;;;;;0.25;0.25;;;;;11.09;77.93;101596.47;5066557;28;45394;-78
2021/11/14 08:43:07;;;;;;;;;1.00;0.00;;;;;11.13;77.81;101600.88;5067972;28;45343;-78
2021/11/14 08:45:33;;;;;;;;;1.75;0.00;;;;;11.12;77.84;101605.19;5064421;28;45445;-77
2021/11/14 08:47:59;;;;;;;;;1.25;0.00;;;;;11.14;77.75;101607.84;5082879;28;45573;-78
2021/11/14 08:50:26;;;;;;;;;0.00;0.00;;;;;11.06;77.50;101592.06;5084958;28;45278;-78
2021/11/14 08:52:53;;;;;;;;;0.00;0.00;;;;;11.08;77.59;101595.56;5084722;28;45370;-79
2021/11/14 08:55:22;;;;;;;;;0.00;0.00;;;;;11.17;77.52;101610.50;5083034;28;45464;-80
2021/11/14 08:57:49;;;;;;;;;0.25;0.00;;;;;11.21;77.73;101601.03;5082285;28;47178;-79
2021/11/14 09:00:20;;;;;;;;;0.00;0.00;;;;;11.35;77.54;101609.09;5082988;28;45182;-79
2021/11/14 09:02:49;;;;;;;;;0.00;0.00;;;;;11.49;77.33;101607.63;5081966;28;45455;-79
2021/11/14 09:05:14;;;;;;;;;1.00;0.00;;;;;11.53;76.87;101600.75;5076522;28;45415;-79
2021/11/14 09:07:40;;;;;;;;;0.00;0.00;;;;;11.56;76.91;101608.66;5074230;28;46156;-77
2021/11/14 09:10:08;;;;;;;;;0.00;0.00;;;;;11.49;76.67;101589.38;5056821;28;45659;-78
2021/11/14 09:12:33;;;;;;;;;0.00;0.00;;;;;11.58;76.67;101606.06;5081872;28;45298;-77
2021/11/14 09:14:59;;;;;;;;;1.00;0.00;;;;;11.44;76.32;101590.16;5079288;28;45456;-82
2021/11/14 09:17:24;;;;;;;;;0.00;0.00;;;;;11.30;76.55;101582.94;5085619;28;45706;-81
2021/11/14 09:19:50;;;;;;;;;0.00;0.00;;;;;11.42;76.42;101612.72;5083538;28;45406;-78
2021/11/14 09:22:15;;;;;;;;;0.00;0.00;;;;;11.32;76.19;101591.69;5082363;28;45350;-78
2021/11/14 09:24:41;;;;;;;;;0.50;0.00;;;;;11.45;76.48;101610.19;5083628;28;45525;-78
2021/11/14 09:27:07;;;;;;;;;0.00;0.00;;;;;11.48;76.28;101605.00;5081643;28;45308;-83
2021/11/14 09:29:33;;;;;;;;;0.00;0.00;;;;;11.62;76.41;101613.09;5085142;28;45499;-78
2021/11/14 09:31:58;;;;;;;;;0.00;0.00;;;;;11.75;75.97;101619.41;5078691;28;45253;-78
2021/11/14 09:34:23;;;;;;;;;0.00;0.00;;;;;11.77;75.73;101613.34;5083542;28;45584;-78
2021/11/14 09:36:49;;;;;;;;;0.00;0.00;;;;;11.79;75.57;101606.44;5081471;28;45358;-78
2021/11/14 09:39:15;;;;;;;;;0.00;0.00;;;;;11.88;75.36;101616.16;5061736;28;45308;-78
2021/11/14 09:41:43;;;;;;;;;0.00;0.00;;;;;11.87;75.64;101614.41;5068055;28;45240;-76
2021/11/14 09:44:11;;;;;;;;;0.00;0.00;;;;;11.84;75.15;101619.59;5081854;28;45361;-78
2021/11/14 09:46:52;;;;;;;;;0.00;0.00;;;;;11.79;75.54;101616.00;5082381;28;46238;-78
2021/11/14 09:49:21;;;;;;;;;0.00;0.00;;;;;11.77;75.48;101609.88;5081825;28;45318;-79
2021/11/14 09:51:48;;;;;;;;;0.00;0.00;;;;;11.79;75.53;101626.44;5082102;28;45299;-79
2021/11/14 09:54:14;;;;;;;;;0.50;0.50;;;;;11.68;75.58;101621.03;5080872;28;45449;-79
2021/11/14 09:56:40;;;;;;;;;0.00;0.00;;;;;11.78;75.79;101629.91;5075014;28;45562;-78
2021/11/14 09:59:06;;;;;;;;;0.00;0.00;;;;;11.65;75.18;101614.03;5073717;28;45504;-81
2021/11/14 10:01:32;;;;;;;;;0.00;0.00;;;;;11.56;75.29;101598.22;5057719;28;45505;-81
2021/11/14 10:03:57;;;;;;;;;0.00;0.00;;;;;11.76;75.32;101631.63;5081477;28;45453;-80
2021/11/14 10:06:23;;;;;;;;;0.50;0.00;;;;;11.64;75.60;101603.59;5082599;28;45697;-81
2021/11/14 10:08:49;;;;;;;;;0.00;0.00;;;;;11.67;75.51;101611.44;5080746;28;45405;-80
2021/11/14 10:11:14;;;;;;;;;0.25;0.25;;;;;11.76;75.87;101621.19;5079749;28;45539;-78
2021/11/14 10:13:46;;;;;;;;;0.00;0.00;;;;;11.83;75.67;101637.81;5075394;28;46335;-79
2021/11/14 10:16:16;;;;;;;;;0.00;0.00;;;;;11.78;75.43;101624.69;5082533;28;45486;-79
2021/11/14 10:18:50;;;;;;;;;0.00;0.00;;;;;11.81;75.48;101619.53;5062519;28;45939;-79
2021/11/14 10:21:16;;;;;;;;;0.00;0.00;;;;;11.82;75.66;101628.25;5083209;28;45365;-81
2021/11/14 10:23:41;;;;;;;;;0.00;0.00;;;;;11.76;75.27;101619.44;5084589;28;45165;-81
2021/11/14 10:26:11;;;;;;;;;0.50;0.50;;;;;11.91;75.46;101629.28;5081880;28;45972;-81
2021/11/14 10:28:41;;;;;;;;;0.00;0.00;;;;;11.99;75.20;101631.13;5070907;28;45524;-82
2021/11/14 10:31:07;;;;;;;;;0.00;0.00;;;;;12.01;75.17;101622.47;5062957;28;45169;-81
2021/11/14 10:33:33;;;;;;;;;0.00;0.00;;;;;12.01;74.97;101616.38;5079324;28;45220;-82
2021/11/14 10:36:00;;;;;;;;;0.00;0.00;;;;;12.12;74.62;101640.06;5082607;28;46156;-81
2021/11/14 10:38:31;;;;;;;;;3.25;1.25;;;;;12.11;74.85;101633.09;5061873;28;45770;-83
2021/11/14 10:41:00;;;;;;;;;0.00;0.00;;;;;11.97;74.45;101605.00;5072297;28;45360;-82
2021/11/14 10:43:30;;;;;;;;;0.00;0.00;;;;;11.85;74.43;101603.06;5077814;28;45718;-82
2021/11/14 10:45:58;;;;;;;;;0.00;0.00;;;;;11.88;74.70;101603.13;5063303;28;48046;-81
2021/11/14 10:48:26;;;;;;;;;0.00;0.00;;;;;12.00;74.90;101627.66;5081491;28;45428;-83
2021/11/14 10:50:55;;;;;;;;;0.00;0.00;;;;;11.98;74.78;101637.22;5075922;28;45597;-82
2021/11/14 10:53:24;;;;;;;;;0.00;0.00;;;;;11.95;74.82;101634.53;5058601;28;45585;-80
2021/11/14 10:55:56;;;;;;;;;0.00;0.00;;;;;11.89;74.85;101633.56;5056556;28;47787;-81
2021/11/14 10:58:24;;;;;;;;;0.75;0.75;;;;;11.90;74.83;101643.19;5078290;28;45413;-80
2021/11/14 11:00:52;;;;;;;;;0.50;0.00;;;;;11.95;74.60;101643.25;5081378;28;45466;-83
2021/11/14 11:03:19;;;;;;;;;0.00;0.00;;;;;12.03;75.05;101636.44;5079133;28;45512;-82
2021/11/14 11:05:45;;;;;;;;;0.00;0.00;;;;;11.98;74.94;101622.41;5076368;28;46681;-82
2021/11/14 11:08:17;;;;;;;;;0.00;0.00;;;;;12.11;74.69;101635.72;5081399;28;45335;-77
2021/11/14 11:10:49;;;;;;;;;0.25;0.00;;;;;12.16;74.65;101634.94;5081866;28;45346;-81
2021/11/14 11:13:34;;;;;;;;;0.00;0.00;;;;;12.25;74.77;101630.72;5055177;28;45731;-79
2021/11/14 11:16:08;;;;;;;;;1.25;0.25;;;;;12.33;74.24;101633.44;5078317;28;47217;-80
2021/11/14 11:18:35;;;;;;;;;0.50;0.50;;;;;12.42;74.02;101636.19;5062129;28;45553;-80
2021/11/14 11:21:03;;;;;;;;;0.25;0.25;;;;;12.44;74.14;101638.84;5075983;28;45448;-81
2021/11/14 11:23:32;;;;;;;;;0.25;0.25;;;;;12.40;73.91;101630.97;5080716;28;45448;-80